Time;durP1;ratioP1;P1;durP2;ratioP2;P2;SDS_P1;SDS_P2;PMS_P1;PMS_P2;Temp;Humidity;BMP_temperature;BMP_pressure;BME280_temperature;BME280_humidity;BME280_pressure;Samples;Min_cycle;Max_cycle;Signal;HPM_P1;HPM_P2
2020/12/02 00:02:34;;;;;;;70.68;45.42;;;0.00;90.80;;;;;;5088588;28;20414;-75
2020/12/02 00:05:09;;;;;;;71.95;44.80;;;0.10;90.90;;;;;;5092009;28;20487;-76
2020/12/02 00:07:36;;;;;;;70.32;44.88;;;0.10;90.70;;;;;;5080664;28;20469;-76
2020/12/02 00:10:05;;;;;;;68.78;44.75;;;0.10;90.70;;;;;;5070611;28;20916;-75
2020/12/02 00:12:32;;;;;;;70.45;44.35;;;0.10;90.60;;;;;;5069307;28;20400;-75
2020/12/02 00:14:59;;;;;;;67.75;42.88;;;0.10;90.50;;;;;;5070420;28;20878;-74
2020/12/02 00:17:25;;;;;;;69.65;43.30;;;0.10;90.50;;;;;;5069485;28;20473;-75
2020/12/02 00:19:52;;;;;;;70.03;43.20;;;0.10;90.50;;;;;;5091478;28;20398;-76
2020/12/02 00:22:23;;;;;;;71.63;42.63;;;0.10;90.20;;;;;;5091675;28;20406;-75
2020/12/02 00:24:52;;;;;;;65.25;41.38;;;0.20;90.30;;;;;;5087525;28;20442;-75
2020/12/02 00:27:29;;;;;;;63.95;40.47;;;0.10;90.10;;;;;;5091734;28;20466;-75
2020/12/02 00:29:56;;;;;;;63.47;40.53;;;0.10;89.80;;;;;;5070627;28;20418;-75
2020/12/02 00:32:28;;;;;;;63.20;39.55;;;0.10;89.90;;;;;;5070747;28;20514;-76
2020/12/02 00:34:55;;;;;;;65.35;40.50;;;0.10;89.80;;;;;;5080973;28;20401;-75
2020/12/02 00:37:26;;;;;;;63.13;39.30;;;0.10;89.60;;;;;;5091052;28;20426;-76
2020/12/02 00:39:55;;;;;;;64.40;39.03;;;0.10;89.00;;;;;;5087070;28;20444;-76
2020/12/02 00:42:23;;;;;;;63.23;39.13;;;0.10;89.10;;;;;;5090088;28;20424;-75
2020/12/02 00:44:52;;;;;;;60.40;38.88;;;0.10;89.20;;;;;;5087515;28;20460;-75
2020/12/02 00:47:22;;;;;;;59.83;37.50;;;0.10;89.10;;;;;;5089895;28;20868;-75
2020/12/02 00:49:54;;;;;;;60.95;38.17;;;0.10;89.00;;;;;;5080986;28;20419;-76
2020/12/02 00:52:22;;;;;;;61.30;38.85;;;0.00;89.00;;;;;;5070858;28;20408;-76
2020/12/02 00:54:51;;;;;;;65.05;40.50;;;0.00;89.00;;;;;;5073189;28;20406;-75
2020/12/02 00:57:24;;;;;;;65.38;39.15;;;0.00;89.00;;;;;;5114146;28;20414;-76
2020/12/02 00:59:54;;;;;;;62.10;39.55;;;0.10;88.50;;;;;;5110650;28;20390;-75
2020/12/02 01:02:42;;;;;;;60.95;38.60;;;0.20;87.70;;;;;;5104014;28;20402;-75
2020/12/02 01:05:14;;;;;;;60.47;38.30;;;0.10;87.80;;;;;;5085709;28;20447;-76
2020/12/02 01:07:43;;;;;;;57.88;37.30;;;0.10;87.70;;;;;;5069562;28;20450;-76
2020/12/02 01:10:11;;;;;;;59.40;37.97;;;0.00;88.30;;;;;;5068622;28;20466;-75
2020/12/02 01:12:42;;;;;;;61.28;38.17;;;0.00;88.50;;;;;;5087597;28;20831;-75
2020/12/02 01:15:11;;;;;;;60.90;37.80;;;0.00;88.60;;;;;;5089868;28;20829;-76
2020/12/02 01:17:37;;;;;;;59.73;37.53;;;0.00;88.30;;;;;;5069321;28;20415;-76
2020/12/02 01:20:09;;;;;;;58.75;37.13;;;0.00;88.20;;;;;;5070483;28;20505;-75
2020/12/02 01:22:40;;;;;;;59.13;36.83;;;-0.10;88.40;;;;;;5066883;28;20805;-76
2020/12/02 01:25:20;;;;;;;61.30;37.60;;;0.00;88.60;;;;;;5090086;28;20886;-76
2020/12/02 01:27:50;;;;;;;55.15;36.45;;;-0.10;88.60;;;;;;5085456;28;20425;-75
2020/12/02 01:30:18;;;;;;;56.22;36.67;;;-0.10;88.20;;;;;;5089925;28;20732;-76
2020/12/02 01:32:45;;;;;;;59.58;35.88;;;-0.10;88.40;;;;;;5075736;28;20412;-75
2020/12/02 01:35:20;;;;;;;54.63;34.30;;;0.00;87.80;;;;;;5070089;28;20484;-76
2020/12/02 01:37:50;;;;;;;55.40;34.75;;;0.00;88.00;;;;;;5075296;28;20511;-76
2020/12/02 01:40:26;;;;;;;57.53;36.22;;;-0.10;87.80;;;;;;5089419;28;20447;-75
2020/12/02 01:43:02;;;;;;;57.25;35.55;;;-0.10;88.10;;;;;;5086272;28;20495;-76
2020/12/02 01:45:37;;;;;;;54.83;35.60;;;-0.10;88.00;;;;;;5089331;28;20402;-76
2020/12/02 01:48:40;;;;;;;55.75;35.25;;;-0.10;88.00;;;;;;5090236;28;20505;-75
2020/12/02 01:51:27;;;;;;;57.22;35.13;;;-0.10;87.70;;;;;;5109099;28;20949;-76
2020/12/02 01:54:17;;;;;;;53.28;34.22;;;-0.20;87.60;;;;;;5094812;28;20858;-75
2020/12/02 01:56:59;;;;;;;55.42;34.63;;;-0.10;87.90;;;;;;5089935;28;20489;-75
2020/12/02 01:59:30;;;;;;;55.63;35.03;;;-0.10;86.70;;;;;;5097224;28;20408;-76
2020/12/02 02:02:17;;;;;;;57.20;35.43;;;-0.10;87.00;;;;;;5109334;28;20416;-76
2020/12/02 02:04:50;;;;;;;53.03;33.55;;;-0.20;87.10;;;;;;5080100;28;20412;-76
2020/12/02 02:07:23;;;;;;;55.90;34.88;;;-0.10;85.90;;;;;;5068962;28;20435;-76
2020/12/02 02:09:57;;;;;;;55.78;34.97;;;-0.20;86.20;;;;;;5066604;28;20404;-76
2020/12/02 02:12:36;;;;;;;54.58;34.95;;;-0.20;86.30;;;;;;5068738;28;20456;-76
2020/12/02 02:15:13;;;;;;;54.03;34.20;;;-0.30;86.60;;;;;;5075376;28;20445;-76
2020/12/02 02:17:42;;;;;;;55.88;34.85;;;-0.20;86.40;;;;;;5089622;28;20426;-75
2020/12/02 02:20:12;;;;;;;55.33;34.17;;;-0.20;85.70;;;;;;5085878;28;20456;-75
2020/12/02 02:22:39;;;;;;;56.30;34.30;;;-0.20;86.30;;;;;;5092724;28;20440;-76
2020/12/02 02:25:14;;;;;;;56.10;36.03;;;-0.30;86.20;;;;;;5093695;28;20488;-75
2020/12/02 02:27:42;;;;;;;56.47;34.42;;;-0.40;86.50;;;;;;5113578;28;20416;-76
2020/12/02 02:30:09;;;;;;;56.25;34.35;;;-0.40;86.30;;;;;;5106601;28;20506;-75
2020/12/02 02:32:38;;;;;;;57.22;34.90;;;-0.40;86.50;;;;;;5093439;28;20866;-76
2020/12/02 02:35:07;;;;;;;55.78;34.75;;;-0.50;86.50;;;;;;5090190;28;21079;-75
2020/12/02 02:37:34;;;;;;;55.30;34.28;;;-0.40;86.50;;;;;;5073073;28;20830;-76
2020/12/02 02:40:03;;;;;;;57.58;34.70;;;-0.40;86.40;;;;;;5072607;28;20451;-76
2020/12/02 02:42:33;;;;;;;55.50;33.65;;;-0.40;86.30;;;;;;5087334;28;20401;-74
2020/12/02 02:45:05;;;;;;;56.17;34.65;;;-0.40;86.50;;;;;;5093044;28;20441;-76
2020/12/02 02:47:32;;;;;;;57.72;35.88;;;-0.40;86.60;;;;;;5074055;28;20488;-76
2020/12/02 02:50:03;;;;;;;53.95;33.83;;;-0.40;86.00;;;;;;5072323;28;20453;-76
2020/12/02 02:52:30;;;;;;;56.50;34.53;;;-0.50;85.70;;;;;;5081610;28;20471;-75
2020/12/02 02:54:56;;;;;;;56.67;34.85;;;-0.50;85.30;;;;;;5092142;28;20414;-76
2020/12/02 02:57:24;;;;;;;57.50;34.97;;;-0.50;86.10;;;;;;5088320;28;20870;-75
2020/12/02 02:59:51;;;;;;;55.38;34.38;;;-0.50;85.50;;;;;;5092798;28;20421;-76
2020/12/02 03:02:17;;;;;;;56.08;34.38;;;-0.60;85.50;;;;;;5088271;28;20907;-76
2020/12/02 03:04:44;;;;;;;54.05;34.05;;;-0.60;85.20;;;;;;5091885;28;20446;-76
2020/12/02 03:07:15;;;;;;;55.15;33.55;;;-0.70;85.30;;;;;;5086757;28;21350;-76
2020/12/02 03:09:44;;;;;;;54.85;34.08;;;-0.70;85.80;;;;;;5071705;28;20494;-75
2020/12/02 03:12:12;;;;;;;54.60;33.83;;;-0.80;85.70;;;;;;5070478;28;20488;-75
2020/12/02 03:14:43;;;;;;;57.73;34.77;;;-0.70;86.00;;;;;;5071487;28;20391;-75
2020/12/02 03:17:18;;;;;;;56.15;34.53;;;-0.70;85.70;;;;;;5072465;28;20477;-75
2020/12/02 03:19:52;;;;;;;56.60;33.65;;;-0.80;85.70;;;;;;5068757;28;20848;-76
2020/12/02 03:22:24;;;;;;;55.70;34.60;;;-0.80;85.90;;;;;;5071348;28;20900;-75
2020/12/02 03:24:54;;;;;;;55.08;33.60;;;-0.90;86.40;;;;;;5068737;28;20500;-76
2020/12/02 03:27:21;;;;;;;54.67;34.65;;;-0.90;86.50;;;;;;5071389;28;20443;-75
2020/12/02 03:29:47;;;;;;;54.20;34.88;;;-0.90;86.50;;;;;;5083133;28;20463;-76
2020/12/02 03:32:16;;;;;;;55.63;33.93;;;-0.90;86.90;;;;;;5091051;28;20785;-72
2020/12/02 03:34:43;;;;;;;57.38;34.65;;;-1.00;86.80;;;;;;5089139;28;20983;-75
2020/12/02 03:37:10;;;;;;;55.15;34.13;;;-1.00;86.70;;;;;;5092105;28;20463;-75
2020/12/02 03:39:41;;;;;;;56.70;34.85;;;-1.00;86.30;;;;;;5089364;28;20474;-72
2020/12/02 03:42:08;;;;;;;56.40;34.38;;;-1.00;86.70;;;;;;5092499;28;20864;-72
2020/12/02 03:44:34;;;;;;;55.78;34.25;;;-1.00;86.90;;;;;;5092736;28;20401;-72
2020/12/02 03:47:00;;;;;;;55.65;35.17;;;-1.10;86.50;;;;;;5112113;28;20396;-72
2020/12/02 03:49:27;;;;;;;54.42;33.40;;;-1.00;86.60;;;;;;5107258;27;20400;-72
2020/12/02 03:51:53;;;;;;;55.22;33.83;;;-0.90;86.00;;;;;;5090890;28;20446;-72
2020/12/02 03:54:20;;;;;;;54.25;34.17;;;-0.90;85.30;;;;;;5091120;28;20761;-71
2020/12/02 03:56:47;;;;;;;57.03;34.78;;;-1.00;86.10;;;;;;5069232;28;20848;-72
2020/12/02 03:59:13;;;;;;;57.40;34.90;;;-1.00;86.10;;;;;;5070755;28;20403;-71
2020/12/02 04:01:39;;;;;;;58.30;35.25;;;-1.10;86.70;;;;;;5079085;28;20426;-71
2020/12/02 04:04:06;;;;;;;60.65;36.55;;;-1.10;86.80;;;;;;5092482;28;20471;-71
2020/12/02 04:06:32;;;;;;;55.08;34.63;;;-1.20;87.00;;;;;;5087662;28;20450;-72
2020/12/02 04:08:59;;;;;;;58.17;35.13;;;-1.20;87.30;;;;;;5090391;28;20843;-72
2020/12/02 04:11:28;;;;;;;58.55;35.35;;;-1.30;87.20;;;;;;5079306;28;20512;-72
2020/12/02 04:13:54;;;;;;;61.28;36.60;;;-1.20;87.30;;;;;;5070644;28;20806;-72
2020/12/02 04:16:21;;;;;;;59.60;35.13;;;-1.30;87.20;;;;;;5069053;28;20435;-72
2020/12/02 04:18:47;;;;;;;58.25;35.65;;;-1.30;87.70;;;;;;5070230;28;20439;-72
2020/12/02 04:21:14;;;;;;;56.92;35.30;;;-1.20;87.00;;;;;;5068312;28;20449;-72
2020/12/02 04:23:43;;;;;;;58.25;35.60;;;-1.20;87.20;;;;;;5079151;28;20467;-71
2020/12/02 04:26:09;;;;;;;60.95;36.78;;;-1.30;86.80;;;;;;5091038;28;20437;-71
2020/12/02 04:28:38;;;;;;;61.92;37.17;;;-1.30;86.90;;;;;;5068822;28;20415;-72
2020/12/02 04:31:07;;;;;;;62.72;36.15;;;-1.20;86.70;;;;;;5070097;28;20427;-71
2020/12/02 04:33:33;;;;;;;58.73;35.37;;;-1.30;86.60;;;;;;5068581;28;20420;-72
2020/12/02 04:36:00;;;;;;;59.50;36.13;;;-1.30;87.20;;;;;;5070253;28;20412;-72
2020/12/02 04:38:26;;;;;;;61.08;36.10;;;-1.30;87.20;;;;;;5079922;28;20410;-72
2020/12/02 04:40:52;;;;;;;58.55;36.45;;;-1.40;87.20;;;;;;5091136;28;20413;-72
2020/12/02 04:43:29;;;;;;;61.20;36.22;;;-1.40;87.20;;;;;;5085792;28;20474;-72
2020/12/02 04:45:56;;;;;;;59.67;35.65;;;-1.40;86.90;;;;;;5089954;28;20413;-71
2020/12/02 04:48:28;;;;;;;58.33;35.80;;;-1.40;86.60;;;;;;5086667;28;20924;-72
2020/12/02 04:51:04;;;;;;;60.37;36.13;;;-1.40;86.90;;;;;;5090134;28;20483;-72
2020/12/02 04:53:34;;;;;;;59.75;34.30;;;-1.40;87.10;;;;;;5086454;28;20398;-72
2020/12/02 04:56:01;;;;;;;60.83;36.03;;;-1.40;86.80;;;;;;5090503;28;20781;-72
2020/12/02 04:58:32;;;;;;;60.13;36.85;;;-1.40;86.90;;;;;;5084525;28;20404;-72
2020/12/02 05:01:12;;;;;;;60.03;36.42;;;-1.40;87.10;;;;;;5069544;28;20445;-72
2020/12/02 05:03:56;;;;;;;60.08;35.25;;;-1.40;87.00;;;;;;5068326;28;20485;-74
2020/12/02 05:06:39;;;;;;;57.53;34.90;;;-1.30;86.30;;;;;;5089811;28;20459;-73
2020/12/02 05:09:17;;;;;;;58.85;35.35;;;-1.40;86.70;;;;;;5086859;28;20435;-73
2020/12/02 05:11:59;;;;;;;60.60;36.42;;;-1.40;86.40;;;;;;5090524;28;20487;-73
2020/12/02 05:14:34;;;;;;;59.67;35.53;;;-1.40;86.70;;;;;;5084385;28;20402;-73
2020/12/02 05:17:21;;;;;;;62.22;36.20;;;-1.40;86.60;;;;;;5070477;28;20419;-73
2020/12/02 05:20:03;;;;;;;57.92;34.63;;;-1.40;86.50;;;;;;5066665;28;20423;-73
2020/12/02 05:22:37;;;;;;;56.15;34.17;;;-1.20;85.70;;;;;;5069489;28;20455;-73
2020/12/02 05:25:05;;;;;;;57.90;34.75;;;-1.20;85.00;;;;;;5082575;28;20500;-73
2020/12/02 05:27:35;;;;;;;56.00;34.03;;;-1.30;84.80;;;;;;5069501;28;20453;-73
2020/12/02 05:30:28;;;;;;;57.25;34.95;;;-1.40;85.30;;;;;;5066482;28;20447;-73
2020/12/02 05:33:12;;;;;;;58.10;33.83;;;-1.40;85.40;;;;;;5090794;28;20479;-73
2020/12/02 05:35:43;;;;;;;57.80;34.28;;;-1.40;85.80;;;;;;5085362;28;20502;-73
2020/12/02 05:38:13;;;;;;;57.37;34.30;;;-1.40;85.80;;;;;;5089937;28;20408;-73
2020/12/02 05:40:40;;;;;;;61.33;35.17;;;-1.40;85.80;;;;;;5084773;28;20843;-73
2020/12/02 05:43:23;;;;;;;59.38;34.10;;;-1.40;85.10;;;;;;5070033;28;20810;-73
2020/12/02 05:45:51;;;;;;;55.88;33.38;;;-1.30;84.40;;;;;;5067928;28;20424;-73
2020/12/02 05:48:23;;;;;;;60.95;35.22;;;-1.20;83.60;;;;;;5084817;28;20485;-73
2020/12/02 05:50:53;;;;;;;58.05;34.35;;;-1.30;83.80;;;;;;5069488;28;20424;-73
2020/12/02 05:53:55;;;;;;;56.67;33.47;;;-1.30;83.70;;;;;;5084404;28;20467;-73
2020/12/02 05:56:21;;;;;;;58.53;33.58;;;-1.30;84.00;;;;;;5076747;28;20444;-73
2020/12/02 05:58:48;;;;;;;58.53;34.80;;;-1.30;83.30;;;;;;5076429;28;20411;-73
2020/12/02 06:01:19;;;;;;;57.08;34.38;;;-1.30;83.70;;;;;;5078232;28;20400;-73
2020/12/02 06:03:50;;;;;;;59.30;34.30;;;-1.40;83.90;;;;;;5105288;28;20499;-73
2020/12/02 06:06:19;;;;;;;57.13;33.70;;;-1.20;84.10;;;;;;5098498;28;20409;-73
2020/12/02 06:08:49;;;;;;;56.10;33.55;;;-1.40;84.00;;;;;;5089948;28;20907;-74
2020/12/02 06:11:15;;;;;;;60.00;33.47;;;-1.40;84.30;;;;;;5093487;28;20426;-73
2020/12/02 06:13:51;;;;;;;59.88;34.03;;;-1.40;83.90;;;;;;5079978;28;20443;-73
2020/12/02 06:16:29;;;;;;;56.33;33.55;;;-1.30;83.20;;;;;;5073022;28;20475;-73
2020/12/02 06:19:25;;;;;;;57.53;32.92;;;-1.40;83.70;;;;;;5071290;28;20441;-73
2020/12/02 06:22:02;;;;;;;54.10;32.38;;;-1.50;83.70;;;;;;5072419;28;20803;-72
2020/12/02 06:24:39;;;;;;;56.72;32.47;;;-1.40;83.30;;;;;;5085041;28;20467;-72
2020/12/02 06:27:15;;;;;;;56.95;33.40;;;-1.40;83.60;;;;;;5093952;28;20421;-73
2020/12/02 06:29:57;;;;;;;59.28;33.60;;;-1.30;83.40;;;;;;5079080;28;20407;-73
2020/12/02 06:32:25;;;;;;;58.97;35.28;;;-1.40;83.60;;;;;;5072577;28;20474;-73
2020/12/02 06:35:19;;;;;;;56.28;33.50;;;-1.30;83.80;;;;;;5081097;28;20409;-73
2020/12/02 06:38:15;;;;;;;56.63;33.20;;;-1.30;83.40;;;;;;5072844;28;20407;-75
2020/12/02 06:41:08;;;;;;;57.40;33.83;;;-1.30;83.30;;;;;;5085076;28;20933;-75
2020/12/02 06:43:47;;;;;;;58.30;34.05;;;-1.30;83.20;;;;;;5089525;28;20904;-75
2020/12/02 06:46:13;;;;;;;57.15;34.30;;;-1.30;83.20;;;;;;5071293;28;20783;-75
2020/12/02 06:48:40;;;;;;;60.05;34.58;;;-1.20;82.40;;;;;;5072331;28;20423;-75
2020/12/02 06:51:14;;;;;;;56.40;33.45;;;-1.30;83.40;;;;;;5068089;28;20499;-74
2020/12/02 06:53:42;;;;;;;57.13;35.25;;;-1.30;83.30;;;;;;5055437;28;20447;-73
2020/12/02 06:56:17;;;;;;;62.43;35.77;;;-1.20;84.00;;;;;;5068632;28;20415;-72
2020/12/02 06:59:08;;;;;;;61.00;35.50;;;-1.30;84.20;;;;;;5070975;28;20403;-75
2020/12/02 07:01:37;;;;;;;61.45;36.13;;;-1.20;83.30;;;;;;5080331;28;20517;-75
2020/12/02 07:04:20;;;;;;;60.33;34.85;;;-1.10;82.60;;;;;;5092178;28;20777;-73
2020/12/02 07:06:58;;;;;;;61.40;35.57;;;-1.10;82.20;;;;;;5087305;28;20807;-74
2020/12/02 07:09:28;;;;;;;62.85;35.88;;;-1.30;83.00;;;;;;5092678;28;20413;-74
2020/12/02 07:11:57;;;;;;;60.10;35.55;;;-1.30;83.20;;;;;;5088310;28;20533;-75
2020/12/02 07:14:39;;;;;;;57.30;34.60;;;-1.30;83.60;;;;;;5092051;28;20430;-74
2020/12/02 07:17:09;;;;;;;60.47;35.33;;;-1.30;83.50;;;;;;5070976;28;20834;-74
2020/12/02 07:19:44;;;;;;;57.42;34.05;;;-1.30;83.00;;;;;;5071477;28;20598;-74
2020/12/02 07:22:30;;;;;;;57.35;35.05;;;-1.20;83.00;;;;;;5069612;28;20419;-74
2020/12/02 07:25:04;;;;;;;64.90;36.17;;;-1.20;83.20;;;;;;5091494;28;20418;-74
2020/12/02 07:27:41;;;;;;;62.03;36.30;;;-1.20;82.90;;;;;;5072706;28;20431;-74
2020/12/02 07:30:18;;;;;;;61.75;36.10;;;-1.10;82.50;;;;;;5074941;28;20504;-73
2020/12/02 07:32:45;;;;;;;60.28;34.78;;;-1.10;82.90;;;;;;5079898;28;20447;-72
2020/12/02 07:35:22;;;;;;;61.50;36.30;;;-1.20;83.00;;;;;;5071600;28;20530;-74
2020/12/02 07:38:04;;;;;;;65.40;36.67;;;-1.20;83.80;;;;;;5069237;28;20412;-77
2020/12/02 07:40:37;;;;;;;66.50;38.50;;;-1.20;82.80;;;;;;5076954;28;20766;-74
2020/12/02 07:43:10;;;;;;;65.65;37.63;;;-1.10;83.20;;;;;;5079845;28;20435;-74
2020/12/02 07:45:37;;;;;;;65.82;37.65;;;-1.00;82.20;;;;;;5071262;28;20830;-74
2020/12/02 07:48:18;;;;;;;62.60;37.53;;;-1.10;83.20;;;;;;5068994;28;20411;-74
2020/12/02 07:50:53;;;;;;;68.53;38.85;;;-1.10;83.10;;;;;;5071394;28;20515;-73
2020/12/02 07:53:34;;;;;;;64.93;37.95;;;-1.10;83.20;;;;;;5067339;28;20424;-74
2020/12/02 07:56:02;;;;;;;66.32;38.40;;;-1.00;83.20;;;;;;5070739;28;20466;-74
2020/12/02 07:58:36;;;;;;;65.38;36.78;;;-0.90;82.40;;;;;;5068038;28;20493;-74
2020/12/02 08:01:17;;;;;;;63.95;37.30;;;-0.90;81.50;;;;;;5070980;28;20532;-74
2020/12/02 08:03:43;;;;;;;63.97;36.00;;;-0.80;81.30;;;;;;5069979;28;20440;-74
2020/12/02 08:06:10;;;;;;;60.97;35.80;;;-0.70;80.90;;;;;;5071024;28;20422;-74
2020/12/02 08:08:36;;;;;;;62.57;36.77;;;-0.70;80.70;;;;;;5071395;28;20403;-75
2020/12/02 08:11:17;;;;;;;67.07;38.55;;;-0.80;81.50;;;;;;5085613;28;20507;-74
2020/12/02 08:13:53;;;;;;;65.18;37.47;;;-0.90;82.10;;;;;;5091596;28;20394;-74
2020/12/02 08:16:28;;;;;;;67.45;37.70;;;-0.90;82.10;;;;;;5087090;28;20813;-74
2020/12/02 08:19:11;;;;;;;67.43;37.88;;;-0.90;82.10;;;;;;5090067;28;20433;-74
2020/12/02 08:21:47;;;;;;;65.57;37.75;;;-0.90;82.50;;;;;;5087280;28;20405;-74
2020/12/02 08:24:42;;;;;;;66.93;38.53;;;-0.70;81.70;;;;;;5089855;28;20398;-73
2020/12/02 08:27:15;;;;;;;66.25;38.47;;;-0.70;81.40;;;;;;5083107;28;20417;-74
2020/12/02 08:29:50;;;;;;;64.95;38.88;;;-0.70;81.50;;;;;;5089195;28;20428;-74
2020/12/02 08:32:28;;;;;;;64.97;37.57;;;-0.70;82.20;;;;;;5069622;28;20898;-74
2020/12/02 08:34:55;;;;;;;64.70;37.53;;;-0.70;81.20;;;;;;5070040;28;20411;-74
2020/12/02 08:37:23;;;;;;;66.43;38.10;;;-0.50;80.70;;;;;;5066900;28;20461;-74
2020/12/02 08:39:55;;;;;;;66.97;38.70;;;-0.60;81.00;;;;;;5070309;28;20431;-74
2020/12/02 08:42:26;;;;;;;66.85;38.63;;;-0.70;81.50;;;;;;5068583;28;20905;-74
2020/12/02 08:45:07;;;;;;;66.95;38.92;;;-0.70;81.90;;;;;;5070757;28;20863;-75
2020/12/02 08:47:34;;;;;;;65.20;38.00;;;-0.60;81.30;;;;;;5079787;28;20510;-74
2020/12/02 08:50:02;;;;;;;67.57;39.53;;;-0.60;81.60;;;;;;5089064;28;20426;-74
2020/12/02 08:52:31;;;;;;;67.68;38.92;;;-0.40;80.50;;;;;;5096482;28;20424;-74
2020/12/02 08:54:57;;;;;;;68.30;38.67;;;-0.40;80.20;;;;;;5110083;28;20412;-74
2020/12/02 08:57:26;;;;;;;65.82;39.00;;;-0.40;80.80;;;;;;5094351;28;20458;-74
2020/12/02 08:59:52;;;;;;;67.38;38.38;;;-0.30;80.40;;;;;;5086525;28;20417;-74
2020/12/02 09:02:19;;;;;;;62.38;37.42;;;-0.30;80.40;;;;;;5085888;28;20771;-74
2020/12/02 09:04:46;;;;;;;64.78;37.92;;;-0.30;80.30;;;;;;5080844;28;20427;-74
2020/12/02 09:07:14;;;;;;;66.03;38.55;;;-0.20;79.90;;;;;;5069294;28;20840;-74
2020/12/02 09:09:40;;;;;;;65.03;37.73;;;-0.20;79.90;;;;;;5069051;28;20422;-73
2020/12/02 09:12:09;;;;;;;63.63;37.90;;;-0.20;80.00;;;;;;5068430;28;20941;-75
2020/12/02 09:14:36;;;;;;;63.25;37.78;;;-0.10;79.30;;;;;;5082163;28;20420;-73
2020/12/02 09:17:05;;;;;;;67.07;38.97;;;-0.10;79.30;;;;;;5068607;28;20423;-73
2020/12/02 09:19:33;;;;;;;64.82;38.08;;;-0.20;80.40;;;;;;5067631;28;20485;-73
2020/12/02 09:22:00;;;;;;;63.63;38.15;;;-0.10;80.10;;;;;;5070207;28;20472;-75
2020/12/02 09:24:31;;;;;;;65.90;38.20;;;0.00;79.50;;;;;;5070080;28;20881;-75
2020/12/02 09:26:59;;;;;;;68.03;39.28;;;0.20;79.90;;;;;;5067613;28;20423;-75
2020/12/02 09:29:26;;;;;;;66.03;38.60;;;0.30;79.50;;;;;;5074119;28;20454;-75
2020/12/02 09:31:53;;;;;;;65.93;38.28;;;0.50;79.30;;;;;;5087939;28;20426;-75
2020/12/02 09:34:19;;;;;;;64.85;38.20;;;0.60;78.70;;;;;;5086835;28;20449;-75
2020/12/02 09:36:46;;;;;;;60.10;36.30;;;1.00;77.80;;;;;;5081453;28;20514;-74
2020/12/02 09:39:16;;;;;;;61.28;36.38;;;1.20;76.50;;;;;;5084347;28;20463;-74
2020/12/02 09:41:51;;;;;;;56.25;35.03;;;1.40;74.70;;;;;;5070487;28;20424;-73
2020/12/02 09:44:31;;;;;;;61.08;36.33;;;1.40;74.30;;;;;;5087895;28;20402;-74
2020/12/02 09:47:17;;;;;;;59.75;36.15;;;1.50;74.40;;;;;;5068786;28;20931;-73
2020/12/02 09:49:47;;;;;;;54.85;33.03;;;1.70;74.00;;;;;;5066961;28;20461;-74
2020/12/02 09:52:31;;;;;;;55.78;32.58;;;2.40;71.00;;;;;;5068538;28;20764;-73
2020/12/02 09:54:59;;;;;;;52.00;32.47;;;3.00;68.90;;;;;;5067270;28;20461;-74
2020/12/02 09:57:29;;;;;;;53.55;32.75;;;3.80;66.70;;;;;;5083268;28;20427;-75
2020/12/02 09:59:57;;;;;;;54.40;33.10;;;4.50;63.40;;;;;;5069013;28;20415;-75
2020/12/02 10:02:36;;;;;;;49.25;31.48;;;4.90;62.10;;;;;;5084062;28;20398;-75
2020/12/02 10:05:25;;;;;;;54.33;32.50;;;5.40;60.30;;;;;;5090384;28;20459;-74
2020/12/02 10:08:23;;;;;;;48.55;31.15;;;6.00;59.40;;;;;;5107758;28;20787;-74
2020/12/02 10:11:16;;;;;;;49.55;31.63;;;6.40;57.10;;;;;;5066376;28;20408;-74
2020/12/02 10:13:51;;;;;;;47.80;31.30;;;6.20;56.40;;;;;;5064134;28;20411;-74
2020/12/02 10:16:30;;;;;;;48.88;31.35;;;6.10;56.40;;;;;;5066525;28;20392;-74
2020/12/02 10:19:25;;;;;;;49.25;31.55;;;6.10;57.10;;;;;;5069235;28;20492;-74
2020/12/02 10:21:57;;;;;;;48.85;32.47;;;6.30;55.60;;;;;;5061554;28;20421;-73
2020/12/02 10:24:40;;;;;;;47.13;30.83;;;6.60;55.80;;;;;;5088996;28;20511;-74
2020/12/02 10:27:43;;;;;;;45.35;30.35;;;7.40;54.30;;;;;;5086759;28;20421;-74
2020/12/02 10:30:12;;;;;;;48.13;31.05;;;8.10;50.90;;;;;;5089406;28;20409;-74
2020/12/02 10:33:16;;;;;;;48.28;32.33;;;8.20;51.60;;;;;;5085782;28;20801;-74
2020/12/02 10:35:46;;;;;;;45.65;31.00;;;8.00;49.50;;;;;;5088314;28;20905;-74
2020/12/02 10:38:29;;;;;;;48.55;31.20;;;8.10;50.30;;;;;;5086351;28;20402;-74
2020/12/02 10:41:32;;;;;;;43.58;30.05;;;8.40;50.00;;;;;;5088674;28;20724;-74
2020/12/02 10:44:38;;;;;;;46.17;30.52;;;8.90;48.30;;;;;;5081137;28;20474;-74
2020/12/02 10:47:19;;;;;;;45.50;30.30;;;9.30;46.50;;;;;;5079747;28;20416;-74
2020/12/02 10:49:46;;;;;;;44.35;30.38;;;9.60;46.00;;;;;;5070486;28;20408;-74
2020/12/02 10:52:17;;;;;;;44.30;29.52;;;9.60;46.80;;;;;;5072885;28;20492;-74
2020/12/02 10:54:49;;;;;;;43.97;29.88;;;9.70;45.50;;;;;;5070962;28;20408;-74
2020/12/02 10:57:24;;;;;;;41.55;29.05;;;9.60;45.50;;;;;;5072869;28;20468;-74
2020/12/02 10:59:54;;;;;;;44.85;30.70;;;9.50;46.20;;;;;;5069855;28;20416;-73
2020/12/02 11:02:27;;;;;;;44.50;30.05;;;9.20;46.30;;;;;;5083700;28;20399;-74
2020/12/02 11:04:54;;;;;;;45.42;30.77;;;8.90;47.10;;;;;;5083282;28;20407;-73
2020/12/02 11:07:38;;;;;;;49.17;30.73;;;8.50;49.00;;;;;;5094070;28;20455;-73
2020/12/02 11:10:30;;;;;;;46.20;30.83;;;8.30;48.80;;;;;;5078924;28;20918;-73
2020/12/02 11:13:13;;;;;;;46.75;31.05;;;8.00;50.10;;;;;;5072278;28;20427;-73
2020/12/02 11:15:55;;;;;;;46.17;30.98;;;8.00;51.10;;;;;;5081711;28;20426;-73
2020/12/02 11:18:46;;;;;;;46.72;30.35;;;8.10;49.40;;;;;;5082929;28;20404;-73
2020/12/02 11:21:40;;;;;;;50.30;32.00;;;8.10;48.90;;;;;;5097501;28;20401;-73
2020/12/02 11:24:41;;;;;;;51.90;32.25;;;7.10;51.50;;;;;;5101197;28;20413;-73
2020/12/02 11:27:09;;;;;;;49.92;31.67;;;6.20;54.70;;;;;;5088602;28;20470;-73
2020/12/02 11:29:36;;;;;;;51.40;33.00;;;5.70;56.60;;;;;;5091673;28;20402;-73
2020/12/02 11:32:46;;;;;;;53.03;33.28;;;5.40;58.30;;;;;;5087256;28;20426;-73
2020/12/02 11:35:15;;;;;;;53.95;33.05;;;5.50;59.30;;;;;;5092786;28;20406;-73
2020/12/02 11:37:51;;;;;;;52.17;33.72;;;5.80;57.60;;;;;;5081475;28;20481;-73
2020/12/02 11:40:31;;;;;;;51.92;33.03;;;5.70;58.10;;;;;;5070988;28;20460;-73
2020/12/02 11:43:21;;;;;;;50.17;32.80;;;5.50;59.40;;;;;;5070297;28;20418;-73
2020/12/02 11:45:49;;;;;;;52.45;33.08;;;5.50;59.50;;;;;;5071105;28;20500;-73
2020/12/02 11:48:24;;;;;;;49.85;32.50;;;5.40;59.50;;;;;;5087158;28;20430;-73
2020/12/02 11:51:29;;;;;;;54.45;33.70;;;5.30;60.00;;;;;;5072100;28;20427;-73
2020/12/02 11:54:03;;;;;;;52.45;33.65;;;5.00;61.00;;;;;;5070948;28;20411;-73
2020/12/02 11:56:40;;;;;;;54.30;33.97;;;4.70;62.10;;;;;;5072036;28;20403;-73
2020/12/02 11:59:12;;;;;;;55.70;34.25;;;4.60;62.60;;;;;;5072149;28;20400;-74
2020/12/02 12:01:59;;;;;;;55.35;34.83;;;4.50;63.40;;;;;;5071378;28;20784;-73
2020/12/02 12:04:35;;;;;;;55.83;34.08;;;4.90;63.60;;;;;;5071659;28;20408;-73
2020/12/02 12:07:22;;;;;;;52.08;33.28;;;5.10;62.70;;;;;;5071154;28;20476;-73
2020/12/02 12:10:06;;;;;;;55.70;33.72;;;5.10;62.10;;;;;;5070508;28;20573;-73
2020/12/02 12:13:01;;;;;;;57.70;34.80;;;4.80;62.30;;;;;;5069032;28;20864;-73
2020/12/02 12:15:40;;;;;;;57.97;34.53;;;4.40;63.40;;;;;;5071863;28;20527;-73
2020/12/02 12:18:24;;;;;;;55.80;33.97;;;4.20;63.90;;;;;;5073980;28;20727;-73
2020/12/02 12:20:56;;;;;;;54.78;34.92;;;4.00;64.60;;;;;;5091267;28;20448;-73
2020/12/02 12:23:25;;;;;;;57.13;34.85;;;3.60;65.70;;;;;;5086932;28;20414;-74
2020/12/02 12:25:52;;;;;;;56.17;35.60;;;3.30;67.10;;;;;;5091135;28;20414;-74
2020/12/02 12:28:26;;;;;;;59.40;35.00;;;3.20;67.90;;;;;;5090429;28;20479;-74
2020/12/02 12:31:00;;;;;;;58.53;35.88;;;3.10;69.10;;;;;;5089659;28;20413;-74
2020/12/02 12:33:54;;;;;;;58.10;36.22;;;3.20;68.50;;;;;;5091002;28;20495;-74
2020/12/02 12:36:22;;;;;;;60.65;36.97;;;3.00;69.60;;;;;;5071084;28;20907;-74
2020/12/02 12:39:01;;;;;;;65.28;36.35;;;3.00;70.30;;;;;;5070565;28;20832;-74
2020/12/02 12:41:37;;;;;;;60.58;36.58;;;3.10;70.30;;;;;;5070668;28;20965;-74
2020/12/02 12:44:16;;;;;;;62.22;35.38;;;3.10;72.60;;;;;;5070965;28;20903;-74
2020/12/02 12:47:08;;;;;;;60.58;36.30;;;3.30;72.30;;;;;;5088330;28;20409;-74
2020/12/02 12:49:35;;;;;;;59.75;35.90;;;3.40;73.20;;;;;;5089200;28;20421;-74
2020/12/02 12:52:03;;;;;;;60.10;35.87;;;3.50;71.30;;;;;;5078768;28;20427;-74
2020/12/02 12:54:34;;;;;;;60.90;35.60;;;3.50;71.20;;;;;;5069955;28;20408;-74
2020/12/02 12:57:01;;;;;;;58.42;35.47;;;3.40;70.90;;;;;;5082622;28;20406;-74
2020/12/02 12:59:33;;;;;;;59.38;34.90;;;3.40;70.50;;;;;;5073545;28;20455;-74
2020/12/02 13:02:02;;;;;;;60.72;36.00;;;3.30;70.90;;;;;;5086421;28;20425;-74
2020/12/02 13:04:28;;;;;;;59.35;35.25;;;3.40;70.80;;;;;;5090689;28;20450;-74
2020/12/02 13:07:12;;;;;;;60.97;36.15;;;3.40;70.50;;;;;;5074897;28;20811;-74